Time;durP1;ratioP1;P1;durP2;ratioP2;P2;SDS_P1;SDS_P2;PMS_P1;PMS_P2;Temp;Humidity;BMP_temperature;BMP_pressure;BME280_temperature;BME280_humidity;BME280_pressure;Samples;Min_cycle;Max_cycle;Signal;HPM_P1;HPM_P2
2023/02/26 00:00:19;;;;;;;6.65;4.15;;;;;;;0.59;78.02;97344.28;4971162;28;20067;-78
2023/02/26 00:02:46;;;;;;;6.38;4.00;;;;;;;0.58;78.03;97349.91;4970958;28;20077;-79
2023/02/26 00:05:12;;;;;;;6.70;4.05;;;;;;;0.57;78.19;97342.88;4968897;28;20515;-78
2023/02/26 00:07:38;;;;;;;6.93;4.07;;;;;;;0.54;78.56;97357.72;4971169;28;20038;-79
2023/02/26 00:10:06;;;;;;;6.20;4.05;;;;;;;0.48;78.51;97364.13;4974088;28;20392;-79
2023/02/26 00:12:32;;;;;;;6.40;3.85;;;;;;;0.43;78.14;97364.09;4974442;28;20066;-78
2023/02/26 00:14:58;;;;;;;7.10;3.88;;;;;;;0.43;77.97;97367.59;4974380;28;20473;-79
2023/02/26 00:17:50;;;;;;;5.07;3.90;;;;;;;0.42;77.74;97368.66;4974185;28;20495;-80
2023/02/26 00:20:16;;;;;;;6.50;4.10;;;;;;;0.43;77.83;97367.59;4988733;28;20054;-79
2023/02/26 00:22:43;;;;;;;6.60;4.30;;;;;;;0.44;78.41;97376.50;4971680;28;20046;-79
2023/02/26 00:25:09;;;;;;;7.65;4.78;;;;;;;0.43;78.32;97372.19;4972460;28;20034;-78
2023/02/26 00:27:35;;;;;;;8.02;4.90;;;;;;;0.41;77.58;97369.72;4973276;28;20033;-79
2023/02/26 00:30:04;;;;;;;11.75;5.50;;;;;;;0.39;78.18;97377.28;4974008;28;20026;-79
2023/02/26 00:32:29;;;;;;;10.23;4.32;;;;;;;0.39;78.26;97388.09;4973620;28;20101;-77
2023/02/26 00:34:55;;;;;;;10.10;5.05;;;;;;;0.37;77.99;97400.19;4979285;28;20488;-80
2023/02/26 00:38:06;;;;;;;9.38;4.78;;;;;;;0.36;78.11;97395.84;4974470;28;20041;-76
2023/02/26 00:40:48;;;;;;;8.13;4.35;;;;;;;0.34;77.56;97396.13;4975383;28;20085;-77
2023/02/26 00:43:21;;;;;;;7.30;4.43;;;;;;;0.32;77.95;97390.19;4972561;28;20038;-77
2023/02/26 00:46:20;;;;;;;8.45;4.70;;;;;;;0.30;77.78;97403.09;4974582;28;20038;-77
2023/02/26 00:49:04;;;;;;;7.47;4.73;;;;;;;0.33;78.05;97399.91;4973267;28;20043;-78
2023/02/26 00:51:52;;;;;;;7.82;5.10;;;;;;;0.33;77.87;97401.75;4974575;28;20278;-77
2023/02/26 00:54:26;;;;;;;8.88;5.35;;;;;;;0.30;78.06;97397.72;4974504;28;20078;-77
2023/02/26 00:56:56;;;;;;;9.90;5.72;;;;;;;0.29;77.64;97396.88;4973804;28;20131;-77
2023/02/26 00:59:22;;;;;;;5.93;3.97;;;;;;;0.32;77.95;97392.03;4974509;28;20031;-77
2023/02/26 01:01:48;;;;;;;10.52;4.85;;;;;;;0.28;77.99;97397.94;4974343;28;20110;-77
2023/02/26 01:04:15;;;;;;;6.82;4.70;;;;;;;0.28;77.98;97387.16;4974047;28;20415;-77
2023/02/26 01:06:45;;;;;;;6.22;4.20;;;;;;;0.32;77.70;97402.84;4973787;28;20027;-79
2023/02/26 01:09:22;;;;;;;5.57;3.78;;;;;;;0.32;78.08;97408.22;4973134;28;20089;-79
2023/02/26 01:11:49;;;;;;;7.63;3.90;;;;;;;0.32;77.75;97392.03;4972513;28;20082;-76
2023/02/26 01:14:14;;;;;;;8.90;3.97;;;;;;;0.28;77.92;97402.53;4972494;28;20479;-77
2023/02/26 01:16:49;;;;;;;6.38;3.70;;;;;;;0.27;77.99;97398.22;4972319;28;20018;-78
2023/02/26 01:19:26;;;;;;;6.47;4.50;;;;;;;0.27;77.98;97398.22;4970867;28;20467;-77
2023/02/26 01:22:00;;;;;;;7.07;4.07;;;;;;;0.26;77.67;97393.88;4972547;28;20114;-75
2023/02/26 01:24:29;;;;;;;6.30;3.78;;;;;;;0.21;77.56;97400.03;4972789;28;20109;-77
2023/02/26 01:26:55;;;;;;;6.40;4.03;;;;;;;0.15;77.35;97398.38;4969452;28;20030;-75
2023/02/26 01:29:20;;;;;;;7.05;4.32;;;;;;;0.11;77.75;97402.66;4972534;28;20031;-76
2023/02/26 01:32:07;;;;;;;8.82;4.20;;;;;;;0.09;77.16;97402.09;4972744;28;20997;-76
2023/02/26 01:34:46;;;;;;;9.13;3.80;;;;;;;0.09;77.24;97412.88;4969860;28;20030;-76
2023/02/26 01:37:26;;;;;;;9.25;4.03;;;;;;;0.07;77.18;97415.81;4971947;28;20020;-76
2023/02/26 01:40:32;;;;;;;5.75;3.65;;;;;;;0.07;77.62;97428.47;4972379;28;20105;-76
2023/02/26 01:43:05;;;;;;;6.43;3.90;;;;;;;0.06;77.55;97427.66;4972890;28;20027;-76
2023/02/26 01:45:34;;;;;;;6.35;3.70;;;;;;;0.08;77.80;97424.72;4971931;28;20113;-75
2023/02/26 01:48:17;;;;;;;6.03;3.83;;;;;;;0.08;77.44;97435.50;4971762;28;20108;-78
2023/02/26 01:50:45;;;;;;;7.13;4.13;;;;;;;0.09;77.50;97439.84;4971984;28;20270;-76
2023/02/26 01:53:16;;;;;;;5.03;3.50;;;;;;;0.10;77.33;97446.84;4971798;28;20073;-75
2023/02/26 01:55:46;;;;;;;7.03;3.63;;;;;;;0.11;77.57;97451.97;4968363;28;20038;-77
2023/02/26 01:58:12;;;;;;;5.75;3.47;;;;;;;0.11;77.40;97451.19;4973908;28;20435;-75
2023/02/26 02:00:37;;;;;;;6.22;3.70;;;;;;;0.08;77.61;97449.78;4971136;28;20023;-76
2023/02/26 02:03:03;;;;;;;6.72;3.88;;;;;;;0.07;77.61;97445.47;4971002;28;20022;-75
2023/02/26 02:05:41;;;;;;;6.70;3.63;;;;;;;0.06;77.60;97459.22;4971129;28;20031;-76
2023/02/26 02:08:07;;;;;;;6.03;3.58;;;;;;;0.06;77.81;97457.31;4968280;28;20741;-77
2023/02/26 02:10:32;;;;;;;7.43;3.97;;;;;;;0.03;77.62;97468.59;4968062;28;20034;-77
2023/02/26 02:13:00;;;;;;;6.70;4.07;;;;;;;0.04;77.49;97475.63;4970732;28;20058;-76
2023/02/26 02:15:31;;;;;;;7.22;4.00;;;;;;;0.05;77.25;97471.84;4970481;28;20110;-76
2023/02/26 02:18:05;;;;;;;6.93;3.95;;;;;;;0.07;77.25;97475.13;4970172;28;20117;-76
2023/02/26 02:20:49;;;;;;;6.35;4.05;;;;;;;0.08;77.13;97479.44;4970859;28;20145;-76
2023/02/26 02:23:44;;;;;;;6.28;4.00;;;;;;;0.06;77.21;97483.47;4969051;28;20373;-76
2023/02/26 02:26:33;;;;;;;8.10;4.20;;;;;;;0.04;77.64;97483.72;4971484;28;20026;-75
2023/02/26 02:29:20;;;;;;;5.65;4.00;;;;;;;0.04;77.65;97491.00;4973279;28;20042;-76
2023/02/26 02:31:54;;;;;;;5.45;3.80;;;;;;;0.02;77.44;97498.50;4971234;28;20109;-76
2023/02/26 02:34:53;;;;;;;5.80;4.20;;;;;;;0.01;77.46;97497.69;4968733;28;20046;-75
2023/02/26 02:37:26;;;;;;;5.78;4.10;;;;;;;0.04;77.75;97504.47;4968187;28;20030;-76
2023/02/26 02:40:03;;;;;;;5.53;3.65;;;;;;;0.07;77.12;97506.66;4971325;28;20031;-75
2023/02/26 02:42:45;;;;;;;6.07;3.75;;;;;;;0.07;77.28;97504.78;4971955;28;20030;-76
2023/02/26 02:45:18;;;;;;;6.63;3.70;;;;;;;0.11;77.27;97502.41;4969645;28;20031;-76
2023/02/26 02:47:48;;;;;;;5.60;3.72;;;;;;;0.09;77.04;97497.25;4970294;28;20030;-75
2023/02/26 02:50:23;;;;;;;6.65;3.60;;;;;;;0.08;77.14;97501.00;4971171;28;20391;-76
2023/02/26 02:53:00;;;;;;;5.63;3.95;;;;;;;0.07;77.27;97502.06;4966838;28;20039;-76
2023/02/26 02:55:39;;;;;;;7.07;4.20;;;;;;;0.09;77.01;97505.34;4968815;28;20219;-76
2023/02/26 02:58:12;;;;;;;6.73;4.07;;;;;;;0.14;77.16;97510.00;4969104;28;20039;-76
2023/02/26 03:00:45;;;;;;;6.35;4.13;;;;;;;0.13;76.86;97508.38;4969618;28;20291;-75
2023/02/26 03:03:33;;;;;;;6.00;4.60;;;;;;;0.13;77.25;97519.16;4970406;28;20121;-76
2023/02/26 03:05:58;;;;;;;5.80;4.15;;;;;;;0.12;76.66;97518.31;4970036;28;20110;-75
2023/02/26 03:08:28;;;;;;;6.28;3.88;;;;;;;0.13;76.52;97513.75;4970083;28;20122;-75
2023/02/26 03:10:54;;;;;;;7.85;4.40;;;;;;;0.17;77.30;97519.44;4970849;28;20045;-75
2023/02/26 03:13:22;;;;;;;6.90;4.20;;;;;;;0.13;77.04;97519.94;4986190;28;20113;-76
2023/02/26 03:16:07;;;;;;;4.68;3.75;;;;;;;0.11;76.42;97521.28;4969454;28;20164;-76
2023/02/26 03:18:57;;;;;;;5.28;4.22;;;;;;;0.10;77.01;97538.53;4968943;28;20031;-75
2023/02/26 03:21:35;;;;;;;7.10;4.10;;;;;;;0.07;76.55;97534.44;4969693;28;20027;-77
2023/02/26 03:24:48;;;;;;;5.80;3.97;;;;;;;0.07;77.02;97553.31;4968134;28;20037;-78
2023/02/26 03:27:34;;;;;;;6.28;4.22;;;;;;;0.09;76.71;97558.47;4955218;28;20126;-77
2023/02/26 03:30:09;;;;;;;6.88;4.90;;;;;;;0.08;76.79;97564.91;4970714;28;20035;-78
2023/02/26 03:33:18;;;;;;;8.95;5.00;;;;;;;0.08;76.55;97570.31;4968594;28;20058;-78
2023/02/26 03:35:46;;;;;;;5.78;3.95;;;;;;;0.13;76.83;97583.88;4967805;28;20046;-80
2023/02/26 03:38:42;;;;;;;5.40;3.70;;;;;;;0.13;76.72;97578.47;4970166;28;20035;-80
2023/02/26 03:41:13;;;;;;;6.65;3.90;;;;;;;0.19;76.60;97595.53;4969909;28;20118;-79
2023/02/26 03:43:52;;;;;;;5.63;3.88;;;;;;;0.20;76.53;97592.59;4973561;28;20026;-79
2023/02/26 03:46:26;;;;;;;6.72;4.45;;;;;;;0.21;76.48;97593.41;4974908;28;20062;-80
2023/02/26 03:48:55;;;;;;;6.20;4.30;;;;;;;0.21;76.41;97601.47;4973941;28;20031;-79
2023/02/26 03:51:23;;;;;;;7.05;3.97;;;;;;;0.19;76.63;97599.06;4973484;28;20031;-79
2023/02/26 03:53:58;;;;;;;7.75;3.80;;;;;;;0.16;76.11;97604.94;4974565;28;20043;-79
2023/02/26 03:56:36;;;;;;;5.93;4.18;;;;;;;0.17;76.59;97597.66;4974498;28;20026;-79
2023/02/26 03:59:02;;;;;;;6.78;4.50;;;;;;;0.16;76.77;97604.94;4989114;28;20096;-79
2023/02/26 04:01:34;;;;;;;8.70;4.50;;;;;;;0.16;76.61;97609.50;4989126;28;20531;-79
2023/02/26 04:04:17;;;;;;;6.15;4.65;;;;;;;0.15;76.43;97608.69;4974597;28;20058;-80
2023/02/26 04:06:44;;;;;;;6.95;4.25;;;;;;;0.13;76.39;97617.03;4973459;28;20031;-79
2023/02/26 04:09:10;;;;;;;5.65;4.00;;;;;;;0.12;76.48;97619.97;4973850;28;20376;-79
2023/02/26 04:11:37;;;;;;;6.53;3.88;;;;;;;0.08;76.04;97625.03;4973810;28;20035;-79
2023/02/26 04:14:03;;;;;;;7.05;3.95;;;;;;;0.05;76.37;97624.72;4973808;28;20158;-79
2023/02/26 04:16:28;;;;;;;6.15;4.40;;;;;;;0.04;75.75;97628.50;4973534;28;20122;-80
2023/02/26 04:18:53;;;;;;;7.03;4.20;;;;;;;0.06;76.13;97623.66;4973799;28;20027;-79
2023/02/26 04:21:21;;;;;;;6.35;4.30;;;;;;;0.07;76.13;97625.31;4973692;28;20142;-80
2023/02/26 04:23:47;;;;;;;7.15;4.00;;;;;;;0.06;76.29;97627.16;4973676;28;20030;-80
2023/02/26 04:26:12;;;;;;;9.02;4.10;;;;;;;0.07;76.24;97630.69;4973379;28;20038;-80
2023/02/26 04:28:38;;;;;;;7.07;4.20;;;;;;;0.04;76.20;97642.78;4972866;28;20110;-80
2023/02/26 04:31:05;;;;;;;5.75;3.78;;;;;;;-0.02;75.93;97638.41;4973561;28;20023;-79
2023/02/26 04:33:32;;;;;;;5.97;3.70;;;;;;;-0.05;75.56;97650.47;4973655;28;20027;-80
2023/02/26 04:35:59;;;;;;;4.53;3.30;;;;;;;-0.09;75.75;97646.63;4973360;28;20108;-79
2023/02/26 04:38:25;;;;;;;5.22;3.50;;;;;;;-0.10;75.92;97657.69;4972910;28;20033;-80
2023/02/26 04:40:50;;;;;;;6.10;3.70;;;;;;;-0.17;75.76;97664.06;4972929;28;20031;-80
2023/02/26 04:43:16;;;;;;;6.38;4.30;;;;;;;-0.16;75.98;97668.38;4973097;28;20603;-80
2023/02/26 04:45:45;;;;;;;7.88;3.90;;;;;;;-0.16;75.69;97673.78;4973773;28;20547;-80
2023/02/26 04:48:11;;;;;;;6.68;3.72;;;;;;;-0.15;75.35;97669.19;4972909;28;20054;-79
2023/02/26 04:50:37;;;;;;;6.20;3.97;;;;;;;-0.10;75.75;97671.16;4973389;28;20520;-79
2023/02/26 04:53:02;;;;;;;6.32;3.45;;;;;;;-0.10;75.47;97668.47;4972999;28;20341;-82
2023/02/26 04:55:27;;;;;;;5.07;3.47;;;;;;;-0.10;75.74;97671.16;4972883;28;20054;-81
2023/02/26 04:57:53;;;;;;;5.65;3.70;;;;;;;-0.08;75.42;97677.13;4971962;28;20542;-81
2023/02/26 05:00:19;;;;;;;6.35;3.38;;;;;;;-0.06;75.54;97688.47;4972862;28;20059;-80
2023/02/26 05:02:44;;;;;;;5.68;3.53;;;;;;;-0.05;75.31;97690.09;4972835;28;20026;-80
2023/02/26 05:05:10;;;;;;;6.22;3.30;;;;;;;-0.04;75.14;97684.47;4972859;28;20026;-80
2023/02/26 05:07:35;;;;;;;7.47;3.45;;;;;;;-0.01;75.38;97700.16;4972474;28;20031;-79
2023/02/26 05:10:01;;;;;;;16.67;7.18;;;;;;;-0.02;75.08;97687.72;4972788;28;20391;-77
2023/02/26 05:12:26;;;;;;;7.28;3.92;;;;;;;-0.03;74.91;97698.78;4972803;28;20118;-79
2023/02/26 05:14:52;;;;;;;14.63;5.13;;;;;;;-0.04;75.11;97702.53;4972354;28;20023;-79
2023/02/26 05:17:17;;;;;;;13.27;4.60;;;;;;;-0.07;74.75;97701.13;4972362;28;20097;-79
2023/02/26 05:19:42;;;;;;;17.13;5.05;;;;;;;-0.08;75.44;97714.84;4972732;28;20369;-80
2023/02/26 05:22:08;;;;;;;15.48;5.05;;;;;;;-0.07;75.42;97713.78;4972592;28;20077;-79
2023/02/26 05:24:34;;;;;;;11.52;4.90;;;;;;;-0.06;75.23;97704.66;4972952;28;20035;-79
2023/02/26 05:26:59;;;;;;;10.65;4.20;;;;;;;-0.07;75.09;97725.38;4972100;28;20055;-79
2023/02/26 05:29:24;;;;;;;8.32;3.67;;;;;;;-0.07;75.01;97724.56;4972427;28;20035;-79
2023/02/26 05:31:50;;;;;;;11.20;3.92;;;;;;;-0.08;74.58;97734.53;4972658;28;20109;-79
2023/02/26 05:34:15;;;;;;;8.07;3.47;;;;;;;-0.10;75.08;97741.25;4972637;28;20027;-79
2023/02/26 05:36:40;;;;;;;10.43;4.65;;;;;;;-0.13;74.64;97752.50;4972070;28;20023;-79
2023/02/26 05:39:06;;;;;;;8.27;4.20;;;;;;;-0.18;74.43;97750.53;4973007;28;20039;-80
2023/02/26 05:41:31;;;;;;;14.00;5.88;;;;;;;-0.20;74.63;97761.56;4973194;28;20504;-80
2023/02/26 05:43:57;;;;;;;16.58;6.90;;;;;;;-0.20;74.87;97766.13;4972800;28;20205;-80
2023/02/26 05:46:25;;;;;;;20.35;6.68;;;;;;;-0.19;74.88;97773.97;4974399;28;20476;-80
2023/02/26 05:48:50;;;;;;;16.23;6.93;;;;;;;-0.18;74.98;97772.91;4973384;28;20031;-80
2023/02/26 05:51:15;;;;;;;14.90;7.38;;;;;;;-0.12;74.41;97781.09;4973627;28;20105;-80
2023/02/26 05:53:41;;;;;;;22.27;8.20;;;;;;;-0.11;74.89;97786.22;4973697;28;20030;-80
2023/02/26 05:56:06;;;;;;;20.73;7.00;;;;;;;-0.10;74.68;97784.38;4973331;28;20030;-80
2023/02/26 05:58:32;;;;;;;17.20;5.50;;;;;;;-0.08;74.77;97799.22;4971381;28;20113;-80
2023/02/26 06:00:58;;;;;;;15.73;5.68;;;;;;;-0.07;74.84;97803.56;4973034;28;20126;-80
2023/02/26 06:03:24;;;;;;;16.77;6.63;;;;;;;-0.07;75.01;97816.22;4973187;28;20026;-80
2023/02/26 06:05:49;;;;;;;18.05;6.65;;;;;;;-0.07;74.55;97810.84;4971235;28;20114;-80
2023/02/26 06:08:15;;;;;;;23.20;7.32;;;;;;;-0.09;74.51;97819.16;4972949;28;20106;-80
2023/02/26 06:10:41;;;;;;;30.17;9.25;;;;;;;-0.08;74.61;97828.88;4972850;28;20456;-80
2023/02/26 06:13:06;;;;;;;23.23;7.88;;;;;;;-0.07;75.02;97822.44;4972995;28;20042;-80
2023/02/26 06:15:32;;;;;;;10.18;4.35;;;;;;;-0.06;74.69;97826.75;4972441;28;20098;-80
2023/02/26 06:17:57;;;;;;;9.10;4.50;;;;;;;-0.09;74.58;97829.94;4972342;28;20377;-80
2023/02/26 06:20:22;;;;;;;22.95;8.10;;;;;;;-0.05;74.97;97831.09;4972679;28;20029;-80
2023/02/26 06:22:48;;;;;;;19.00;7.28;;;;;;;-0.04;74.39;97831.94;4987387;28;20375;-81
2023/02/26 06:25:13;;;;;;;13.80;5.55;;;;;;;-0.02;74.69;97840.59;4972592;28;20065;-80
2023/02/26 06:27:39;;;;;;;17.67;6.50;;;;;;;-0.02;74.53;97845.97;4972325;28;20042;-80
2023/02/26 06:30:05;;;;;;;16.75;6.00;;;;;;;0.02;74.87;97851.69;4971149;28;20031;-81
2023/02/26 06:32:30;;;;;;;13.93;5.97;;;;;;;-0.03;74.71;97855.94;4972352;28;20462;-81
2023/02/26 06:34:56;;;;;;;17.77;6.68;;;;;;;-0.03;74.59;97855.13;4972384;28;20105;-80
2023/02/26 06:37:21;;;;;;;21.55;7.70;;;;;;;0.00;74.77;97860.03;4971792;28;20027;-80
2023/02/26 06:39:46;;;;;;;23.63;10.60;;;;;;;0.03;74.20;97862.22;4972996;28;20035;-80
2023/02/26 06:42:13;;;;;;;15.40;7.10;;;;;;;0.02;74.54;97863.28;4972359;28;20041;-81
2023/02/26 06:44:38;;;;;;;15.27;6.60;;;;;;;0.05;74.33;97864.69;4972219;28;20066;-80
2023/02/26 06:47:04;;;;;;;17.35;7.20;;;;;;;0.06;74.11;97871.72;4971530;28;20027;-80
2023/02/26 06:49:29;;;;;;;15.40;7.07;;;;;;;0.05;74.57;97876.28;4972316;28;20058;-81
2023/02/26 06:51:55;;;;;;;15.00;6.28;;;;;;;0.06;74.39;97875.22;4972107;28;20074;-81
2023/02/26 06:54:21;;;;;;;12.85;6.05;;;;;;;0.05;74.30;97878.16;4972285;28;20023;-80
2023/02/26 06:56:46;;;;;;;9.07;4.85;;;;;;;0.08;74.56;97877.69;4971619;28;20039;-80
2023/02/26 06:59:11;;;;;;;10.85;5.55;;;;;;;0.13;74.62;97885.88;4971935;28;20053;-81
2023/02/26 07:01:38;;;;;;;13.07;7.00;;;;;;;0.20;74.76;97888.41;4971930;28;20114;-80
2023/02/26 07:04:03;;;;;;;14.57;8.15;;;;;;;0.25;75.07;97886.59;4971602;28;20043;-79
2023/02/26 07:06:28;;;;;;;10.15;6.35;;;;;;;0.31;74.00;97892.94;4972064;28;20122;-80
2023/02/26 07:08:54;;;;;;;12.38;6.88;;;;;;;0.31;74.17;97886.69;4972053;28;20073;-80
2023/02/26 07:11:20;;;;;;;13.73;6.93;;;;;;;0.36;74.83;97893.03;4971925;28;20022;-80
2023/02/26 07:13:45;;;;;;;10.43;5.22;;;;;;;0.42;74.69;97902.81;4971774;28;20100;-81
2023/02/26 07:16:11;;;;;;;10.25;5.65;;;;;;;0.45;74.87;97898.81;4971056;28;20090;-81
2023/02/26 07:18:36;;;;;;;8.68;6.18;;;;;;;0.48;74.62;97909.13;4971349;28;20034;-80
2023/02/26 07:21:03;;;;;;;10.27;6.72;;;;;;;0.54;74.39;97908.16;4971603;28;20023;-80
2023/02/26 07:23:29;;;;;;;10.02;5.60;;;;;;;0.57;74.13;97904.16;4972117;28;20539;-80
2023/02/26 07:25:55;;;;;;;6.10;4.35;;;;;;;0.54;74.31;97912.72;4971958;28;20034;-79
2023/02/26 07:28:21;;;;;;;9.93;6.20;;;;;;;0.53;74.28;97908.38;4971846;28;20038;-80
2023/02/26 07:30:46;;;;;;;6.90;4.72;;;;;;;0.55;74.19;97917.06;4972173;28;20039;-79
2023/02/26 07:33:12;;;;;;;8.45;5.60;;;;;;;0.61;74.46;97923.38;4971984;28;20387;-79
2023/02/26 07:35:38;;;;;;;9.15;5.72;;;;;;;0.61;74.40;97923.38;4971930;28;20035;-79
2023/02/26 07:38:03;;;;;;;8.25;4.93;;;;;;;0.57;73.62;97923.03;4971532;28;20038;-79
2023/02/26 07:40:29;;;;;;;8.63;5.65;;;;;;;0.51;73.75;97930.22;4972104;28;20101;-79
2023/02/26 07:42:54;;;;;;;10.10;5.75;;;;;;;0.50;74.53;97934.00;4971539;28;20066;-79
2023/02/26 07:45:21;;;;;;;9.55;5.25;;;;;;;0.55;74.30;97938.66;4971882;28;20065;-79
2023/02/26 07:47:51;;;;;;;7.07;4.80;;;;;;;0.60;74.06;97941.44;4971644;28;20126;-79
2023/02/26 07:50:18;;;;;;;7.18;4.68;;;;;;;0.68;74.48;97943.75;4971846;28;20138;-79
2023/02/26 07:52:45;;;;;;;10.15;5.30;;;;;;;0.71;74.15;97942.41;4971675;28;20031;-79
2023/02/26 07:55:11;;;;;;;8.98;5.60;;;;;;;0.73;74.25;97954.63;4971933;28;20045;-78
2023/02/26 07:57:36;;;;;;;9.13;5.38;;;;;;;0.73;74.46;97948.41;4971257;28;20055;-78
2023/02/26 08:00:04;;;;;;;9.98;6.32;;;;;;;0.72;74.34;97961.09;4971811;28;20031;-79
2023/02/26 08:02:29;;;;;;;10.23;5.10;;;;;;;0.72;73.81;97962.94;4971081;28;20030;-79
2023/02/26 08:04:54;;;;;;;7.57;4.50;;;;;;;0.68;73.86;97961.81;4971662;28;20038;-78
2023/02/26 08:07:20;;;;;;;4.65;3.00;;;;;;;0.68;73.87;97964.50;4971009;28;20468;-78
2023/02/26 08:09:45;;;;;;;4.75;3.72;;;;;;;0.64;73.70;97964.19;4971509;28;20074;-78
2023/02/26 08:12:10;;;;;;;5.07;2.45;;;;;;;0.58;73.93;97976.78;4971597;28;20555;-78
2023/02/26 08:14:36;;;;;;;4.07;2.40;;;;;;;0.54;73.49;97974.78;4971797;28;20391;-78
2023/02/26 08:17:01;;;;;;;4.03;2.42;;;;;;;0.48;73.49;97973.88;4970643;28;20027;-78
2023/02/26 08:19:26;;;;;;;4.55;2.60;;;;;;;0.49;74.02;97975.53;4970036;28;20069;-78
2023/02/26 08:21:54;;;;;;;11.35;5.10;;;;;;;0.55;73.31;97979.13;4970725;28;20128;-78
2023/02/26 08:24:20;;;;;;;21.67;10.07;;;;;;;0.58;73.98;97974.06;4971044;28;20027;-78
2023/02/26 08:26:45;;;;;;;24.52;11.13;;;;;;;0.62;74.26;97976.25;4970453;28;20073;-78
2023/02/26 08:29:10;;;;;;;18.10;9.00;;;;;;;0.66;74.07;97980.13;4973041;28;20023;-78
2023/02/26 08:31:36;;;;;;;14.80;7.47;;;;;;;0.74;73.83;97977.03;4974758;28;20031;-78
2023/02/26 08:34:01;;;;;;;10.18;6.28;;;;;;;0.86;73.85;97982.34;4974213;28;20046;-78
2023/02/26 08:36:27;;;;;;;8.77;4.97;;;;;;;0.96;73.83;97989.81;4974219;28;20030;-77
2023/02/26 08:38:52;;;;;;;9.30;5.53;;;;;;;1.00;73.57;97994.47;4974106;28;20030;-78
2023/02/26 08:41:18;;;;;;;8.85;6.80;;;;;;;1.10;73.94;97993.81;4974504;28;20768;-78
2023/02/26 08:43:43;;;;;;;24.00;12.32;;;;;;;1.20;73.83;97998.56;4954119;28;20023;-77
2023/02/26 08:46:09;;;;;;;9.13;5.70;;;;;;;1.30;73.52;97995.19;4974622;28;20034;-77
2023/02/26 08:48:34;;;;;;;9.48;6.10;;;;;;;1.38;73.32;97996.66;4973505;28;20023;-77
2023/02/26 08:51:00;;;;;;;10.20;6.63;;;;;;;1.40;73.26;98000.75;4974383;28;20372;-77
2023/02/26 08:53:25;;;;;;;11.98;7.50;;;;;;;1.39;73.40;98004.53;4974239;28;20109;-77
2023/02/26 08:55:52;;;;;;;7.93;5.55;;;;;;;1.41;73.03;98015.09;4974669;28;20446;-77
2023/02/26 08:58:18;;;;;;;8.68;5.05;;;;;;;1.34;72.18;98001.75;4973593;28;20051;-77
2023/02/26 09:00:44;;;;;;;8.57;4.60;;;;;;;1.32;71.96;98011.97;4974160;28;20022;-77
2023/02/26 09:03:09;;;;;;;9.85;5.53;;;;;;;1.38;72.04;98005.59;4988086;28;20041;-77
2023/02/26 09:05:35;;;;;;;9.77;5.15;;;;;;;1.48;72.25;98005.72;4973245;28;20039;-78
2023/02/26 09:08:01;;;;;;;6.85;4.13;;;;;;;1.53;72.08;98006.88;4972452;28;20019;-76
2023/02/26 09:10:27;;;;;;;7.47;4.47;;;;;;;1.49;72.23;98018.16;4973465;28;20428;-78
2023/02/26 09:12:52;;;;;;;7.05;3.95;;;;;;;1.46;70.63;98021.38;4973827;28;20522;-78
2023/02/26 09:15:18;;;;;;;5.28;3.00;;;;;;;1.37;70.34;98027.44;4973899;28;20510;-77
2023/02/26 09:17:44;;;;;;;6.80;3.80;;;;;;;1.31;70.45;98030.06;4973440;28;20078;-76
2023/02/26 09:20:11;;;;;;;8.02;4.35;;;;;;;1.26;69.00;98035.38;4974034;28;20023;-78
2023/02/26 09:22:36;;;;;;;11.75;4.28;;;;;;;1.21;69.37;98029.94;4973271;28;20030;-77
2023/02/26 09:25:03;;;;;;;10.50;4.38;;;;;;;1.16;69.36;98029.84;4973784;28;20022;-78
2023/02/26 09:27:29;;;;;;;7.90;3.60;;;;;;;1.11;68.82;98033.25;4973421;28;20089;-77
2023/02/26 09:29:54;;;;;;;8.25;4.05;;;;;;;1.06;67.68;98029.66;4974118;28;20027;-78
2023/02/26 09:32:19;;;;;;;6.15;2.78;;;;;;;1.01;68.43;98038.50;4973673;28;20110;-77
2023/02/26 09:34:45;;;;;;;5.55;3.13;;;;;;;1.01;68.41;98041.22;4973813;28;20118;-78
2023/02/26 09:37:10;;;;;;;8.25;3.58;;;;;;;1.02;67.31;98043.66;4972915;28;20054;-78
2023/02/26 09:39:36;;;;;;;7.38;3.40;;;;;;;1.09;67.82;98037.28;4973014;28;20027;-78
2023/02/26 09:42:49;;;;;;;6.55;2.88;;;;;;;1.22;66.85;98044.25;4971714;28;20033;-77
2023/02/26 09:45:37;;;;;;;6.70;3.22;;;;;;;1.34;67.56;98050.38;4973450;28;20030;-78
2023/02/26 09:48:05;;;;;;;7.47;3.28;;;;;;;1.44;67.85;98055.94;4988022;28;20371;-77
2023/02/26 09:50:47;;;;;;;8.18;3.55;;;;;;;1.53;66.39;98042.84;4973588;28;20031;-77
2023/02/26 09:53:30;;;;;;;5.93;2.65;;;;;;;1.65;65.71;98056.25;4973272;28;20027;-77
2023/02/26 09:56:06;;;;;;;4.25;2.22;;;;;;;1.72;66.50;98045.25;4973404;28;20042;-77
2023/02/26 09:58:36;;;;;;;3.55;2.00;;;;;;;1.82;65.56;98056.22;4987835;28;20363;-77
2023/02/26 10:01:25;;;;;;;2.13;1.50;;;;;;;1.88;64.16;98076.03;4972214;28;20042;-78
2023/02/26 10:04:09;;;;;;;4.40;2.08;;;;;;;1.86;64.32;98081.69;4973039;28;20029;-78
2023/02/26 10:07:01;;;;;;;4.63;2.47;;;;;;;1.74;63.71;98081.81;4973107;28;20070;-78
2023/02/26 10:10:03;;;;;;;3.38;1.83;;;;;;;1.64;64.27;98092.47;4973306;28;20162;-78
2023/02/26 10:12:34;;;;;;;3.63;2.33;;;;;;;1.60;63.93;98094.00;4973228;28;20066;-78
2023/02/26 10:15:00;;;;;;;2.72;2.03;;;;;;;1.60;64.22;98110.22;4972662;28;20074;-78
2023/02/26 10:17:51;;;;;;;7.10;3.00;;;;;;;1.56;64.20;98107.22;4973095;28;20075;-78
2023/02/26 10:20:35;;;;;;;10.57;4.70;;;;;;;1.52;64.14;98113.34;4973279;28;20133;-79
2023/02/26 10:23:16;;;;;;;6.47;3.40;;;;;;;1.43;65.34;98129.97;4973168;28;20559;-78
2023/02/26 10:25:52;;;;;;;10.52;4.82;;;;;;;1.34;64.48;98137.66;4972704;28;20035;-78
2023/02/26 10:28:36;;;;;;;11.95;5.65;;;;;;;1.19;64.83;98134.69;4972912;28;20499;-78
2023/02/26 10:31:25;;;;;;;80.35;29.75;;;;;;;1.13;65.34;98141.88;4972399;28;20035;-80
2023/02/26 10:33:57;;;;;;;14.65;7.40;;;;;;;1.16;65.77;98148.69;4972704;28;20050;-80
2023/02/26 10:36:26;;;;;;;12.05;6.88;;;;;;;1.23;66.13;98140.44;4971937;28;20031;-80
2023/02/26 10:39:02;;;;;;;12.45;6.45;;;;;;;1.29;66.57;98148.38;4970616;28;20085;-80
2023/02/26 10:41:31;;;;;;;11.30;6.03;;;;;;;1.41;65.97;98158.31;4971967;28;20539;-80
2023/02/26 10:44:16;;;;;;;8.00;5.03;;;;;;;1.48;66.68;98154.38;4969452;28;20046;-79
2023/02/26 10:47:14;;;;;;;10.85;5.85;;;;;;;1.51;66.44;98161.19;4972130;28;20035;-79
2023/02/26 10:50:04;;;;;;;9.95;5.15;;;;;;;1.53;66.50;98160.94;4972336;28;20512;-79
2023/02/26 10:52:33;;;;;;;6.65;4.13;;;;;;;1.55;66.38;98166.91;4971615;28;20042;-78
2023/02/26 10:55:25;;;;;;;18.20;10.60;;;;;;;1.55;65.97;98164.22;4971964;28;20026;-79
2023/02/26 10:57:56;;;;;;;20.55;13.85;;;;;;;1.55;66.66;98166.91;4971352;28;20081;-79
2023/02/26 11:00:22;;;;;;;21.63;9.73;;;;;;;1.55;66.46;98173.16;4970946;28;20034;-78
2023/02/26 11:02:53;;;;;;;19.23;7.28;;;;;;;1.51;66.78;98190.91;4972231;28;20026;-78
2023/02/26 11:05:19;;;;;;;8.68;4.47;;;;;;;1.34;66.58;98201.69;4968214;28;20078;-79
2023/02/26 11:07:51;;;;;;;7.97;4.30;;;;;;;1.14;67.07;98192.13;4971031;28;20030;-79
2023/02/26 11:10:23;;;;;;;6.63;3.72;;;;;;;1.04;67.19;98200.88;4971150;28;20030;-78
2023/02/26 11:12:48;;;;;;;8.60;4.32;;;;;;;1.01;67.19;98212.16;4967251;28;20039;-78
2023/02/26 11:15:24;;;;;;;13.35;5.90;;;;;;;0.97;67.58;98204.78;4969895;28;20031;-79
2023/02/26 11:17:56;;;;;;;8.90;4.13;;;;;;;0.95;67.97;98213.09;4969052;28;20081;-77
2023/02/26 11:20:39;;;;;;;17.20;6.13;;;;;;;0.92;68.49;98202.78;4970891;28;20034;-78
2023/02/26 11:23:12;;;;;;;12.25;5.53;;;;;;;0.92;68.56;98200.09;4970526;28;20122;-80
2023/02/26 11:25:37;;;;;;;13.00;5.22;;;;;;;0.88;68.50;98209.72;4969968;28;20114;-79
2023/02/26 11:28:17;;;;;;;10.43;5.30;;;;;;;0.87;68.53;98202.69;4969936;28;20498;-79
2023/02/26 11:30:43;;;;;;;7.65;4.13;;;;;;;0.94;68.57;98197.97;4969580;28;20027;-79
2023/02/26 11:33:17;;;;;;;9.25;4.35;;;;;;;0.97;68.07;98200.19;4969668;28;20033;-79
2023/02/26 11:35:44;;;;;;;7.95;4.72;;;;;;;1.05;68.82;98196.28;4969393;28;20105;-79
2023/02/26 11:38:17;;;;;;;7.38;4.32;;;;;;;1.15;68.19;98203.78;4969223;28;20074;-79
2023/02/26 11:40:47;;;;;;;8.25;3.90;;;;;;;1.19;68.17;98210.34;4969774;28;20085;-81
2023/02/26 11:43:19;;;;;;;7.78;4.82;;;;;;;1.28;68.54;98208.06;4984800;28;20023;-79
2023/02/26 11:45:48;;;;;;;7.22;4.65;;;;;;;1.46;68.28;98212.44;4970189;28;20085;-79
2023/02/26 11:48:22;;;;;;;9.70;5.07;;;;;;;1.60;67.78;98208.38;4970497;28;20054;-78
2023/02/26 11:50:51;;;;;;;5.75;3.10;;;;;;;1.71;68.35;98208.53;4969722;28;20785;-78
2023/02/26 11:53:19;;;;;;;4.03;2.80;;;;;;;1.77;67.65;98210.25;4970599;28;20038;-79